createdAt,value
2018-05-12T00:02:13.106Z,84.70
2018-05-12T00:04:40.613Z,84.90
2018-05-12T00:07:08.103Z,86.00
2018-05-12T00:09:35.611Z,86.10
2018-05-12T00:12:03.869Z,86.10
2018-05-12T00:14:31.361Z,86.00
2018-05-12T00:16:59.655Z,84.80
2018-05-12T00:19:27.915Z,85.40
2018-05-12T00:21:56.190Z,85.90
2018-05-12T00:24:24.446Z,86.30
2018-05-12T00:26:51.928Z,86.30
2018-05-12T00:29:19.425Z,86.70
2018-05-12T00:31:46.925Z,86.50
2018-05-12T00:34:14.427Z,86.10
2018-05-12T00:36:42.683Z,86.10
2018-05-12T00:39:10.208Z,86.10
2018-05-12T00:41:37.713Z,86.10
2018-05-12T00:44:05.207Z,86.30
2018-05-12T00:46:33.494Z,86.00
2018-05-12T00:49:01.763Z,86.40
2018-05-12T00:51:29.269Z,86.30
2018-05-12T00:53:56.778Z,86.10
2018-05-12T00:56:24.285Z,85.90
2018-05-12T00:58:51.774Z,86.90
2018-05-12T01:01:19.258Z,86.40
2018-05-12T01:03:46.762Z,86.00
2018-05-12T01:06:14.286Z,85.90
2018-05-12T01:08:41.796Z,86.00
2018-05-12T01:11:09.300Z,86.20
2018-05-12T01:13:36.815Z,86.20
2018-05-12T01:16:04.324Z,85.90
2018-05-12T01:18:31.810Z,86.20
2018-05-12T01:21:00.089Z,85.70
2018-05-12T01:23:27.606Z,85.70
2018-05-12T01:25:55.126Z,85.30
2018-05-12T01:28:23.384Z,86.20
2018-05-12T01:30:50.904Z,86.20
2018-05-12T01:33:18.397Z,85.90
2018-05-12T01:35:45.892Z,86.40
2018-05-12T01:38:14.180Z,85.90
2018-05-12T01:40:42.424Z,86.00
2018-05-12T01:43:09.965Z,86.00
2018-05-12T01:45:37.458Z,86.40
2018-05-12T01:48:04.971Z,87.80
2018-05-12T01:50:32.460Z,86.80
2018-05-12T01:52:59.959Z,86.40
2018-05-12T01:55:27.464Z,87.20
2018-05-12T01:57:54.964Z,88.60
2018-05-12T02:00:22.467Z,88.00
2018-05-12T02:02:49.993Z,85.80
2018-05-12T02:05:17.513Z,86.00
2018-05-12T02:07:45.013Z,85.50
2018-05-12T02:10:12.501Z,86.20
2018-05-12T02:12:40.005Z,85.80
2018-05-12T02:15:08.261Z,84.40
2018-05-12T02:17:35.789Z,84.40
2018-05-12T02:20:03.305Z,84.50
2018-05-12T02:22:30.815Z,85.40
2018-05-12T02:24:58.290Z,84.90
2018-05-12T02:27:25.786Z,84.00
2018-05-12T02:29:53.299Z,84.40
2018-05-12T02:32:20.788Z,83.40
2018-05-12T02:34:48.305Z,83.10
2018-05-12T02:37:15.797Z,84.20
2018-05-12T02:39:43.297Z,83.90
2018-05-12T02:42:11.552Z,84.40
2018-05-12T02:44:39.048Z,84.30
2018-05-12T02:47:06.564Z,85.30
2018-05-12T02:49:34.058Z,85.50
2018-05-12T02:52:02.329Z,85.80
2018-05-12T02:54:29.812Z,85.80
2018-05-12T02:56:57.326Z,85.90
2018-05-12T02:59:24.823Z,86.00
2018-05-12T03:01:52.308Z,86.20
2018-05-12T03:04:20.590Z,86.00
2018-05-12T03:06:48.828Z,86.60
2018-05-12T03:09:16.328Z,86.60
2018-05-12T03:11:43.829Z,86.10
2018-05-12T03:14:11.315Z,86.40
2018-05-12T03:16:38.823Z,87.30
2018-05-12T03:19:06.302Z,87.10
2018-05-12T03:21:33.808Z,87.90
2018-05-12T03:24:01.309Z,88.70
2018-05-12T03:26:29.592Z,87.40
2018-05-12T03:28:57.084Z,87.40
2018-05-12T03:31:24.581Z,87.40
2018-05-12T03:33:52.080Z,87.20
2018-05-12T03:36:19.560Z,86.70
2018-05-12T03:38:47.061Z,87.20
2018-05-12T03:41:14.544Z,87.30
2018-05-12T03:43:42.039Z,86.50
2018-05-12T03:46:09.525Z,86.50
2018-05-12T03:48:37.006Z,86.70
2018-05-12T03:51:04.509Z,86.40
2018-05-12T03:53:32.771Z,87.80
2018-05-12T03:56:00.284Z,87.80
2018-05-12T03:58:27.759Z,87.90
2018-05-12T04:00:55.279Z,87.20
2018-05-12T04:03:23.555Z,86.40
2018-05-12T04:06:03.547Z,87.70
2018-05-12T04:08:52.807Z,87.70
2018-05-12T04:11:32.241Z,86.80
2018-05-12T04:13:59.661Z,86.40
2018-05-12T04:16:28.015Z,85.50
2018-05-12T04:18:55.517Z,85.50
2018-05-12T04:21:23.773Z,86.90
2018-05-12T04:23:51.283Z,86.80
2018-05-12T04:26:19.564Z,87.40
2018-05-12T04:28:47.073Z,87.40
2018-05-12T04:31:14.562Z,88.00
2018-05-12T04:33:42.851Z,87.40
2018-05-12T04:36:11.094Z,88.80
2018-05-12T04:38:38.605Z,88.80
2018-05-12T04:41:06.163Z,89.10
2018-05-12T04:43:33.667Z,89.60
2018-05-12T04:46:01.982Z,89.60
2018-05-12T04:48:30.268Z,89.70
2018-05-12T04:50:58.552Z,89.80
2018-05-12T04:53:26.808Z,89.60
2018-05-12T04:55:54.330Z,89.50
2018-05-12T04:58:21.852Z,89.40
2018-05-12T05:00:50.125Z,89.10
2018-05-12T05:03:17.753Z,89.00
2018-05-12T05:05:45.238Z,88.60
2018-05-12T05:08:12.752Z,88.80
2018-05-12T05:10:41.021Z,88.80
2018-05-12T05:13:09.296Z,89.30
2018-05-12T05:15:37.597Z,89.10
2018-05-12T05:18:05.097Z,89.10
2018-05-12T05:20:32.604Z,88.80
2018-05-12T05:23:00.871Z,89.80
2018-05-12T05:25:28.397Z,89.80
2018-05-12T05:27:55.891Z,89.70
2018-05-12T05:30:23.377Z,89.70
2018-05-12T05:32:51.645Z,89.80
2018-05-12T05:35:19.222Z,89.80
2018-05-12T05:37:46.667Z,89.10
2018-05-12T05:40:14.168Z,88.70
2018-05-12T05:42:41.669Z,89.50
2018-05-12T05:45:09.166Z,89.80
2018-05-12T05:47:36.674Z,90.00
2018-05-12T05:50:04.216Z,90.00
2018-05-12T05:52:31.697Z,90.60
2018-05-12T05:54:59.206Z,90.30
2018-05-12T05:57:26.700Z,87.20
2018-05-12T05:59:54.975Z,87.00
2018-05-12T06:02:23.232Z,83.90
2018-05-12T06:04:50.737Z,83.80
2018-05-12T06:07:18.248Z,84.70
2018-05-12T06:09:45.745Z,85.10
2018-05-12T06:12:14.030Z,84.00
2018-05-12T06:14:41.520Z,84.00
2018-05-12T07:40:10.758Z,59.90
2018-05-12T07:42:38.550Z,59.90
2018-05-12T07:45:06.096Z,59.00
2018-05-12T07:47:37.472Z,58.00
2018-05-12T07:50:05.135Z,57.40
2018-05-12T07:52:32.686Z,55.00
2018-05-12T07:55:01.260Z,55.70
2018-05-12T07:57:28.830Z,56.70
2018-05-12T07:59:56.361Z,54.70
2018-05-12T08:02:24.132Z,55.30
2018-05-12T08:16:23.008Z,54.90
2018-05-12T08:18:51.112Z,54.90
2018-05-12T08:21:18.638Z,55.50
2018-05-12T08:23:46.136Z,57.60
2018-05-12T08:26:13.666Z,56.90
2018-05-12T08:28:41.178Z,57.70
2018-05-12T08:31:08.706Z,60.90
2018-05-12T08:36:38.431Z,59.80
2018-05-12T08:39:05.983Z,59.30
2018-05-12T08:41:33.501Z,59.50
2018-05-12T08:44:01.057Z,59.90
2018-05-12T08:46:28.581Z,59.80
2018-05-12T08:48:56.099Z,60.30
2018-05-12T08:51:23.619Z,60.50
2018-05-12T08:53:51.180Z,59.50
2018-05-12T08:56:18.745Z,60.40
2018-05-12T08:58:46.380Z,61.10
2018-05-12T09:01:14.065Z,60.90
2018-05-12T09:03:41.662Z,61.60
2018-05-12T09:06:09.275Z,64.00
2018-05-12T09:08:36.943Z,62.10
2018-05-12T09:11:04.887Z,62.80
2018-05-12T09:13:32.524Z,63.80
2018-05-12T09:16:00.491Z,62.70
2018-05-12T09:18:28.133Z,62.90
2018-05-12T09:20:55.771Z,64.30
2018-05-12T09:23:25.321Z,60.90
2018-05-12T09:25:53.002Z,58.10
2018-05-12T09:28:20.626Z,57.70
2018-05-12T09:30:48.363Z,58.90
2018-05-12T09:33:16.003Z,58.20
2018-05-12T09:35:43.628Z,56.80
2018-05-12T09:38:11.194Z,53.30
2018-05-12T09:40:39.481Z,53.80
2018-05-12T09:43:07.745Z,51.80
2018-05-12T09:45:36.022Z,51.60
2018-05-12T09:48:03.551Z,51.00
2018-05-12T09:50:33.707Z,50.40
2018-05-12T09:53:02.049Z,47.80
2018-05-12T09:55:29.617Z,47.70
2018-05-12T09:57:58.606Z,45.60
2018-05-12T10:01:15.512Z,47.30
2018-05-12T10:03:43.090Z,46.30
2018-05-12T10:06:10.727Z,48.80
2018-05-12T10:08:38.247Z,51.10
2018-05-12T10:11:05.839Z,51.90
2018-05-12T10:13:33.356Z,49.10
2018-05-12T10:16:00.932Z,47.80
2018-05-12T10:18:28.485Z,48.30
2018-05-12T10:20:56.003Z,47.80
2018-05-12T10:23:26.794Z,48.50
2018-05-12T10:25:54.333Z,48.50
2018-05-12T10:28:21.856Z,50.00
2018-05-12T10:30:49.579Z,48.80
2018-05-12T10:33:17.128Z,48.20
2018-05-12T10:35:45.544Z,48.20
2018-05-12T10:38:13.111Z,48.30
2018-05-12T10:40:41.505Z,48.20
2018-05-12T10:43:09.951Z,47.90
2018-05-12T10:45:37.597Z,47.90
2018-05-12T10:48:05.234Z,51.20
2018-05-12T10:50:33.802Z,48.40
2018-05-12T10:53:02.119Z,47.50
2018-05-12T10:55:29.869Z,47.50
2018-05-12T10:57:57.628Z,49.00
2018-05-12T11:00:25.423Z,48.00
2018-05-12T11:02:53.050Z,47.80
2018-05-12T11:05:21.396Z,48.70
2018-05-12T11:07:49.256Z,48.60
2018-05-12T11:10:16.888Z,47.20
2018-05-12T11:12:44.503Z,48.60
2018-05-12T11:15:12.156Z,47.80
2018-05-12T11:17:39.778Z,47.80
2018-05-12T11:20:08.257Z,47.10
2018-05-12T11:22:35.850Z,47.10
2018-05-12T11:25:03.486Z,48.30
2018-05-12T11:27:31.113Z,48.40
2018-05-12T11:29:58.723Z,47.40
2018-05-12T11:32:26.368Z,47.30
2018-05-12T11:34:53.894Z,47.70
2018-05-12T11:37:21.406Z,47.50
2018-05-12T11:39:48.928Z,48.20
2018-05-12T11:42:16.449Z,47.90
2018-05-12T11:44:44.826Z,47.90
2018-05-12T11:47:12.309Z,47.80
2018-05-12T11:49:40.609Z,48.70
2018-05-12T11:52:09.473Z,48.70
2018-05-12T11:54:37.762Z,48.30
2018-05-12T11:57:06.046Z,47.60
2018-05-12T11:59:33.553Z,47.60
2018-05-12T12:02:02.884Z,48.20
2018-05-12T12:04:30.402Z,47.90
2018-05-12T12:06:57.903Z,46.30
2018-05-12T12:09:25.419Z,47.70
2018-05-12T12:11:52.919Z,46.70
2018-05-12T12:14:21.285Z,46.10
2018-05-12T12:16:48.815Z,46.50
2018-05-12T12:19:17.094Z,47.00
2018-05-12T12:21:44.612Z,46.90
2018-05-12T12:24:12.134Z,45.70
2018-05-12T12:26:39.777Z,47.50
2018-05-12T12:29:08.034Z,45.10
2018-05-12T12:31:35.554Z,45.10
2018-05-12T12:34:03.085Z,44.90
2018-05-12T12:36:30.634Z,45.80
2018-05-12T12:38:58.191Z,43.90
2018-05-12T12:41:25.740Z,44.50
2018-05-12T12:43:53.261Z,44.80
2018-05-12T12:46:20.785Z,46.60
2018-05-12T12:48:48.294Z,46.90
2018-05-12T12:51:15.822Z,45.00
2018-05-12T12:53:43.340Z,43.80
2018-05-12T12:56:10.862Z,42.70
2018-05-12T12:58:39.140Z,44.00
2018-05-12T13:01:08.308Z,44.50
2018-05-12T13:03:35.826Z,44.50
2018-05-12T13:06:03.356Z,43.90
2018-05-12T13:08:31.655Z,44.60
2018-05-12T13:10:59.924Z,45.40
2018-05-12T13:13:27.426Z,45.40
2018-05-12T13:15:54.961Z,45.70
2018-05-12T13:18:23.252Z,44.30
2018-05-12T13:20:51.543Z,44.00
2018-05-12T13:23:19.050Z,44.00
2018-05-12T13:25:46.616Z,42.50
2018-05-12T13:28:14.130Z,43.10
2018-05-12T13:30:41.644Z,42.50
2018-05-12T13:33:09.154Z,44.10
2018-05-12T13:35:36.686Z,41.90
2018-05-12T13:38:04.214Z,41.90
2018-05-12T13:40:31.731Z,45.80
2018-05-12T13:43:00.034Z,36.80
2018-05-12T13:45:27.602Z,36.80
2018-05-12T13:47:55.112Z,33.80
2018-05-12T13:50:22.616Z,35.90
2018-05-12T13:52:50.180Z,42.00
2018-05-12T13:55:18.528Z,38.30
2018-05-12T13:57:45.961Z,38.10
2018-05-12T14:00:13.474Z,37.40
2018-05-12T14:02:41.743Z,30.70
2018-05-12T14:05:10.054Z,31.40
2018-05-12T14:07:37.591Z,31.40
2018-05-12T14:10:05.901Z,29.30
2018-05-12T14:12:33.431Z,29.30
2018-05-12T14:15:02.453Z,30.90
2018-05-12T14:17:29.969Z,30.80
2018-05-12T14:19:57.490Z,29.70
2018-05-12T14:22:25.018Z,27.50
2018-05-12T14:24:52.551Z,27.90
2018-05-12T14:27:20.080Z,27.20
2018-05-12T14:29:47.594Z,29.40
2018-05-12T14:32:15.115Z,27.80
2018-05-12T14:34:42.626Z,27.20
2018-05-12T14:37:10.148Z,26.10
2018-05-12T14:39:37.702Z,27.50
2018-05-12T14:42:06.806Z,26.00
2018-05-12T14:44:34.318Z,26.00
2018-05-12T14:47:01.851Z,27.00
2018-05-12T14:49:29.362Z,26.70
2018-05-12T14:51:57.654Z,27.10
2018-05-12T14:54:25.953Z,26.50
2018-05-12T14:56:54.246Z,26.50
2018-05-12T14:59:21.798Z,26.40
2018-05-12T15:01:49.320Z,25.20
2018-05-12T15:04:16.832Z,25.30
2018-05-12T15:06:44.353Z,26.30
2018-05-12T15:09:11.858Z,27.00
2018-05-12T15:11:39.416Z,26.20
2018-05-12T15:14:06.912Z,26.80
2018-05-12T15:16:34.423Z,27.10
2018-05-12T15:19:02.703Z,25.80
2018-05-12T15:21:31.020Z,26.00
2018-05-12T15:23:58.559Z,26.00
2018-05-12T15:26:26.079Z,27.00
2018-05-12T15:28:53.597Z,27.30
2018-05-12T15:31:21.114Z,26.10
2018-05-12T15:33:48.613Z,27.20
2018-05-12T15:36:16.961Z,28.80
2018-05-12T15:38:44.432Z,28.60
2018-05-12T15:41:12.101Z,28.10
2018-05-12T15:43:39.672Z,28.40
2018-05-12T15:46:07.132Z,30.00
2018-05-12T15:48:34.669Z,30.10
2018-05-12T15:51:02.201Z,29.90
2018-05-12T15:53:29.825Z,29.90
2018-05-12T15:55:57.352Z,31.00
2018-05-12T15:58:24.891Z,30.50
2018-05-12T16:00:52.385Z,30.30
2018-05-12T16:03:19.977Z,32.50
2018-05-12T16:05:47.452Z,30.90
2018-05-12T16:08:15.732Z,32.00
2018-05-12T16:10:44.051Z,31.20
2018-05-12T16:13:11.556Z,31.80
2018-05-12T16:15:39.062Z,31.40
2018-05-12T16:18:06.601Z,31.20
2018-05-12T16:20:34.888Z,30.70
2018-05-12T16:23:03.183Z,32.20
2018-05-12T16:25:30.719Z,32.20
2018-05-12T16:27:58.996Z,31.80
2018-05-12T16:30:26.590Z,31.70
2018-05-12T16:32:54.152Z,31.30
2018-05-12T16:35:21.698Z,31.90
2018-05-12T16:37:49.216Z,32.30
2018-05-12T16:40:17.502Z,32.90
2018-05-12T16:42:45.013Z,32.90
2018-05-12T16:45:12.524Z,32.20
2018-05-12T16:47:40.047Z,32.20
2018-05-12T16:50:08.654Z,32.40
2018-05-12T16:52:36.216Z,32.30
2018-05-12T16:55:04.654Z,33.20
2018-05-12T16:57:32.237Z,33.40
2018-05-12T17:00:00.561Z,33.60
2018-05-12T17:02:28.073Z,33.60
2018-05-12T17:04:57.271Z,33.70
2018-05-12T17:07:25.567Z,34.00
2018-05-12T17:09:53.872Z,34.90
2018-05-12T17:12:21.445Z,34.40
2018-05-12T17:14:48.897Z,33.80
2018-05-12T17:17:17.286Z,34.70
2018-05-12T17:19:44.824Z,34.50
2018-05-12T17:22:13.126Z,35.00
2018-05-12T17:24:40.649Z,34.90
2018-05-12T17:27:08.175Z,35.20
2018-05-12T17:29:35.677Z,35.70
2018-05-12T17:32:03.227Z,35.70
2018-05-12T17:34:31.445Z,36.20
2018-05-12T17:36:59.735Z,35.70
2018-05-12T17:39:27.969Z,35.60
2018-05-12T17:41:56.350Z,36.20
2018-05-12T17:44:23.957Z,36.20
2018-05-12T17:46:51.381Z,35.50
2018-05-12T17:49:18.889Z,37.20
2018-05-12T17:51:47.158Z,37.30
2018-05-12T17:54:15.489Z,37.60
2018-05-12T17:56:42.999Z,37.60
2018-05-12T17:59:11.285Z,38.10
2018-05-12T18:01:38.792Z,38.10
2018-05-12T18:04:06.334Z,38.10
2018-05-12T18:06:33.876Z,36.90
2018-05-12T18:09:02.172Z,38.10
2018-05-12T18:11:29.753Z,38.10
2018-05-12T18:13:57.216Z,39.20
2018-05-12T18:16:24.765Z,38.50
2018-05-12T18:18:52.282Z,39.00
2018-05-12T18:21:19.824Z,38.10
2018-05-12T18:23:47.352Z,38.00
2018-05-12T18:26:15.669Z,38.10
2018-05-12T18:28:43.182Z,38.10
2018-05-12T18:31:11.447Z,38.20
2018-05-12T18:33:38.952Z,38.20
2018-05-12T18:36:06.472Z,38.30
2018-05-12T18:38:34.068Z,38.40
2018-05-12T18:41:01.521Z,38.60
2018-05-12T18:43:29.806Z,39.20
2018-05-12T18:45:58.063Z,40.90
2018-05-12T18:48:25.562Z,40.80
2018-05-12T18:50:53.078Z,39.90
2018-05-12T18:53:21.672Z,40.60
2018-05-12T18:55:49.223Z,40.60
2018-05-12T18:58:16.724Z,41.90
2018-05-12T19:00:44.992Z,41.30
2018-05-12T19:03:12.498Z,41.30
2018-05-12T19:05:40.020Z,41.20
2018-05-12T19:08:07.533Z,41.20
2018-05-12T19:10:35.036Z,41.70
2018-05-12T19:13:02.546Z,42.10
2018-05-12T19:15:30.131Z,43.00
2018-05-12T19:17:58.411Z,43.80
2018-05-12T19:20:25.917Z,43.80
2018-05-12T19:22:53.407Z,45.20
2018-05-12T19:25:20.902Z,44.80
2018-05-12T19:27:50.038Z,45.90
2018-05-12T19:30:17.546Z,45.90
2018-05-12T19:32:45.082Z,45.60
2018-05-12T19:35:13.369Z,45.20
2018-05-12T19:37:40.883Z,45.20
2018-05-12T19:40:08.426Z,45.70
2018-05-12T19:42:35.929Z,46.60
2018-05-12T19:45:03.469Z,47.40
2018-05-12T19:47:30.989Z,47.50
2018-05-12T19:49:58.516Z,48.00
2018-05-12T19:52:26.019Z,47.80
2018-05-12T19:54:54.291Z,48.60
2018-05-12T19:57:22.559Z,47.00
2018-05-12T19:59:50.082Z,46.90
2018-05-12T20:02:17.602Z,47.10
2018-05-12T20:04:45.101Z,47.30
2018-05-12T20:07:12.617Z,46.80
2018-05-12T20:09:40.892Z,47.20
2018-05-12T20:12:08.414Z,47.20
2018-05-12T20:14:35.910Z,47.40
2018-05-12T20:17:03.424Z,47.20
2018-05-12T20:19:31.696Z,47.40
2018-05-12T20:21:59.205Z,47.40
2018-05-12T20:24:26.714Z,47.50
2018-05-12T20:26:54.212Z,47.30
2018-05-12T20:29:21.767Z,47.70
2018-05-12T20:31:49.279Z,46.00
2018-05-12T20:34:16.812Z,46.50
2018-05-12T20:36:44.309Z,45.40
2018-05-12T20:39:11.823Z,45.80
2018-05-12T20:41:39.353Z,45.00
2018-05-12T20:44:07.612Z,44.90
2018-05-12T20:46:35.122Z,44.90
2018-05-12T20:49:02.645Z,44.60
2018-05-12T20:51:30.910Z,45.00
2018-05-12T20:53:58.410Z,45.60
2018-05-12T20:56:25.944Z,45.30
2018-05-12T20:58:53.470Z,44.10
2018-05-12T21:01:20.977Z,45.60
2018-05-12T21:03:49.257Z,43.50
2018-05-12T21:06:16.795Z,43.50
2018-05-12T21:08:44.336Z,43.30
2018-05-12T21:11:11.846Z,43.50
2018-05-12T21:13:40.122Z,44.10
2018-05-12T21:16:07.623Z,44.00
2018-05-12T21:18:35.115Z,44.40
2018-05-12T21:21:02.631Z,44.40
2018-05-12T21:23:30.141Z,44.90
2018-05-12T21:25:57.656Z,44.50
2018-05-12T21:28:25.934Z,44.00
2018-05-12T21:30:54.204Z,44.50
2018-05-12T21:33:21.861Z,44.50
2018-05-12T21:35:49.373Z,44.30
2018-05-12T21:38:16.883Z,44.40
2018-05-12T21:40:44.392Z,45.30
2018-05-12T21:43:11.893Z,45.80
2018-05-12T21:45:40.174Z,47.00
2018-05-12T21:48:07.659Z,46.30
2018-05-12T21:50:35.164Z,45.70
2018-05-12T21:53:02.756Z,45.20
2018-05-12T21:55:30.209Z,46.20
2018-05-12T21:57:57.719Z,46.10
2018-05-12T22:00:25.223Z,45.60
2018-05-12T22:02:52.723Z,45.00
2018-05-12T22:05:20.232Z,45.60
2018-05-12T22:07:48.582Z,46.70
2018-05-12T22:10:16.794Z,47.00
2018-05-12T22:12:45.072Z,46.00
2018-05-12T22:15:12.571Z,46.00
2018-05-12T22:17:40.089Z,46.30
2018-05-12T22:20:08.362Z,46.70
2018-05-12T22:22:35.880Z,46.70
2018-05-12T22:25:03.408Z,46.70
2018-05-12T22:27:31.677Z,47.30
2018-05-12T22:29:59.948Z,48.70
2018-05-12T22:32:27.470Z,48.10
2018-05-12T22:34:54.986Z,48.10
2018-05-12T22:37:23.252Z,50.10
2018-05-12T22:39:50.749Z,50.10
2018-05-12T22:42:19.019Z,50.40
2018-05-12T22:44:47.285Z,52.00
2018-05-12T22:47:14.863Z,52.00
2018-05-12T22:49:42.303Z,51.80
2018-05-12T22:52:09.786Z,52.20
2018-05-12T22:54:38.069Z,52.40
2018-05-12T22:57:06.333Z,53.70
2018-05-12T22:59:34.608Z,54.30
2018-05-12T23:02:02.134Z,54.20
2018-05-12T23:04:29.647Z,55.90
2018-05-12T23:06:57.162Z,57.10
2018-05-12T23:09:24.661Z,56.50
2018-05-12T23:11:52.163Z,57.10
2018-05-12T23:14:19.657Z,57.90
2018-05-12T23:16:47.155Z,58.40
2018-05-12T23:19:14.651Z,58.50
2018-05-12T23:21:42.157Z,58.70
2018-05-12T23:24:09.662Z,58.70
2018-05-12T23:26:37.941Z,58.40
2018-05-12T23:29:06.214Z,58.40
2018-05-12T23:31:34.525Z,58.80
2018-05-12T23:34:02.042Z,58.80
2018-05-12T23:36:30.309Z,59.40
2018-05-12T23:38:57.812Z,59.30
2018-05-12T23:41:25.343Z,59.40
2018-05-12T23:43:52.858Z,59.90
2018-05-12T23:46:20.374Z,60.40
2018-05-12T23:48:47.900Z,60.60
2018-05-12T23:51:15.400Z,60.30
2018-05-12T23:53:42.931Z,60.50
2018-05-12T23:56:10.428Z,60.90
2018-05-12T23:58:37.930Z,61.30
